sensor_id;sensor_type;location;lat;lon;timestamp;temperature;humidity
28175;SHT30;59417;44.788;10.334;2024-03-02T00:01:07;11.46;95.52
28175;SHT30;59417;44.788;10.334;2024-03-02T00:03:42;11.45;95.57
28175;SHT30;59417;44.788;10.334;2024-03-02T00:06:10;11.45;95.54
28175;SHT30;59417;44.788;10.334;2024-03-02T00:08:35;11.43;95.53
28175;SHT30;59417;44.788;10.334;2024-03-02T00:11:01;11.42;95.52
28175;SHT30;59417;44.788;10.334;2024-03-02T00:13:30;11.42;95.46
28175;SHT30;59417;44.788;10.334;2024-03-02T00:15:58;11.43;95.46
28175;SHT30;59417;44.788;10.334;2024-03-02T00:18:30;11.43;95.50
28175;SHT30;59417;44.788;10.334;2024-03-02T00:20:57;11.40;95.46
28175;SHT30;59417;44.788;10.334;2024-03-02T00:23:23;11.43;95.53
28175;SHT30;59417;44.788;10.334;2024-03-02T00:25:53;11.43;95.51
28175;SHT30;59417;44.788;10.334;2024-03-02T00:28:19;11.45;95.55
28175;SHT30;59417;44.788;10.334;2024-03-02T00:31:02;11.46;95.49
28175;SHT30;59417;44.788;10.334;2024-03-02T00:33:44;11.47;95.49
28175;SHT30;59417;44.788;10.334;2024-03-02T00:36:12;11.45;95.49
28175;SHT30;59417;44.788;10.334;2024-03-02T00:38:50;11.45;95.49
28175;SHT30;59417;44.788;10.334;2024-03-02T00:41:32;11.49;95.34
28175;SHT30;59417;44.788;10.334;2024-03-02T00:46:29;11.47;95.31
28175;SHT30;59417;44.788;10.334;2024-03-02T00:49:01;11.45;95.32
28175;SHT30;59417;44.788;10.334;2024-03-02T00:51:30;11.46;95.29
28175;SHT30;59417;44.788;10.334;2024-03-02T00:53:59;11.49;95.19
28175;SHT30;59417;44.788;10.334;2024-03-02T00:56:25;11.47;95.11
28175;SHT30;59417;44.788;10.334;2024-03-02T00:58:52;11.47;95.05
28175;SHT30;59417;44.788;10.334;2024-03-02T01:01:18;11.45;95.09
28175;SHT30;59417;44.788;10.334;2024-03-02T01:03:45;11.40;95.14
28175;SHT30;59417;44.788;10.334;2024-03-02T01:06:11;11.35;95.13
28175;SHT30;59417;44.788;10.334;2024-03-02T01:08:39;11.35;95.30
28175;SHT30;59417;44.788;10.334;2024-03-02T01:11:14;11.32;95.32
28175;SHT30;59417;44.788;10.334;2024-03-02T01:13:40;11.29;95.41
28175;SHT30;59417;44.788;10.334;2024-03-02T01:16:06;11.29;95.45
28175;SHT30;59417;44.788;10.334;2024-03-02T01:18:32;11.29;95.48
28175;SHT30;59417;44.788;10.334;2024-03-02T01:20:58;11.33;95.48
28175;SHT30;59417;44.788;10.334;2024-03-02T01:23:24;11.27;95.44
28175;SHT30;59417;44.788;10.334;2024-03-02T01:25:50;11.26;95.49
28175;SHT30;59417;44.788;10.334;2024-03-02T01:28:16;11.25;95.35
28175;SHT30;59417;44.788;10.334;2024-03-02T01:30:42;11.26;95.32
28175;SHT30;59417;44.788;10.334;2024-03-02T01:33:08;11.20;95.39
28175;SHT30;59417;44.788;10.334;2024-03-02T01:35:34;11.20;95.45
28175;SHT30;59417;44.788;10.334;2024-03-02T01:38:03;11.23;95.31
28175;SHT30;59417;44.788;10.334;2024-03-02T01:40:35;11.25;95.27
28175;SHT30;59417;44.788;10.334;2024-03-02T01:43:01;11.22;95.25
28175;SHT30;59417;44.788;10.334;2024-03-02T01:45:28;11.20;95.24
28175;SHT30;59417;44.788;10.334;2024-03-02T01:48:19;11.18;95.25
28175;SHT30;59417;44.788;10.334;2024-03-02T01:50:53;11.18;95.23
28175;SHT30;59417;44.788;10.334;2024-03-02T01:53:18;11.20;95.15
28175;SHT30;59417;44.788;10.334;2024-03-02T01:55:44;11.13;95.29
28175;SHT30;59417;44.788;10.334;2024-03-02T01:58:10;11.15;95.34
28175;SHT30;59417;44.788;10.334;2024-03-02T02:00:36;11.16;95.28
28175;SHT30;59417;44.788;10.334;2024-03-02T02:03:02;11.13;95.34
28175;SHT30;59417;44.788;10.334;2024-03-02T02:05:28;11.16;95.34
28175;SHT30;59417;44.788;10.334;2024-03-02T02:07:54;11.13;95.36
28175;SHT30;59417;44.788;10.334;2024-03-02T02:10:22;11.15;95.31
28175;SHT30;59417;44.788;10.334;2024-03-02T02:12:51;11.12;95.34
28175;SHT30;59417;44.788;10.334;2024-03-02T02:15:30;11.13;95.34
28175;SHT30;59417;44.788;10.334;2024-03-02T02:17:56;11.13;95.39
28175;SHT30;59417;44.788;10.334;2024-03-02T02:20:22;11.09;95.47
28175;SHT30;59417;44.788;10.334;2024-03-02T02:23:04;11.09;95.53
28175;SHT30;59417;44.788;10.334;2024-03-02T02:25:46;11.09;95.48
28175;SHT30;59417;44.788;10.334;2024-03-02T02:28:11;11.08;95.53
28175;SHT30;59417;44.788;10.334;2024-03-02T02:30:37;11.05;95.55
28175;SHT30;59417;44.788;10.334;2024-03-02T02:33:03;11.05;95.62
28175;SHT30;59417;44.788;10.334;2024-03-02T02:35:28;11.06;95.61
28175;SHT30;59417;44.788;10.334;2024-03-02T02:38:10;11.05;95.59
28175;SHT30;59417;44.788;10.334;2024-03-02T02:40:51;11.02;95.63
28175;SHT30;59417;44.788;10.334;2024-03-02T02:43:17;11.06;95.60
28175;SHT30;59417;44.788;10.334;2024-03-02T02:45:43;11.04;95.57
28175;SHT30;59417;44.788;10.334;2024-03-02T02:48:09;11.05;95.70
28175;SHT30;59417;44.788;10.334;2024-03-02T02:50:34;11.11;95.59
28175;SHT30;59417;44.788;10.334;2024-03-02T02:53:00;11.06;95.61
28175;SHT30;59417;44.788;10.334;2024-03-02T02:55:26;11.06;95.64
28175;SHT30;59417;44.788;10.334;2024-03-02T02:57:58;11.08;95.58
28175;SHT30;59417;44.788;10.334;2024-03-02T03:00:36;11.06;95.53
28175;SHT30;59417;44.788;10.334;2024-03-02T03:03:04;11.04;95.50
28175;SHT30;59417;44.788;10.334;2024-03-02T03:05:42;11.04;95.58
28175;SHT30;59417;44.788;10.334;2024-03-02T03:08:08;11.04;95.60
28175;SHT30;59417;44.788;10.334;2024-03-02T03:10:43;11.02;95.59
28175;SHT30;59417;44.788;10.334;2024-03-02T03:13:09;11.04;95.57
28175;SHT30;59417;44.788;10.334;2024-03-02T03:15:35;11.01;95.65
28175;SHT30;59417;44.788;10.334;2024-03-02T03:18:03;11.05;95.46
28175;SHT30;59417;44.788;10.334;2024-03-02T03:20:29;11.06;95.45
28175;SHT30;59417;44.788;10.334;2024-03-02T03:23:00;10.99;95.56
28175;SHT30;59417;44.788;10.334;2024-03-02T03:25:30;10.99;95.59
28175;SHT30;59417;44.788;10.334;2024-03-02T03:27:56;11.04;95.45
28175;SHT30;59417;44.788;10.334;2024-03-02T03:30:21;11.02;95.41
28175;SHT30;59417;44.788;10.334;2024-03-02T03:32:47;11.02;95.43
28175;SHT30;59417;44.788;10.334;2024-03-02T03:35:15;11.04;95.50
28175;SHT30;59417;44.788;10.334;2024-03-02T03:37:41;10.96;95.49
28175;SHT30;59417;44.788;10.334;2024-03-02T03:40:07;11.01;95.46
28175;SHT30;59417;44.788;10.334;2024-03-02T03:42:37;10.98;95.52
28175;SHT30;59417;44.788;10.334;2024-03-02T03:45:54;11.02;95.45
28175;SHT30;59417;44.788;10.334;2024-03-02T03:48:04;10.98;95.54
28175;SHT30;59417;44.788;10.334;2024-03-02T03:50:33;10.96;95.57
28175;SHT30;59417;44.788;10.334;2024-03-02T03:53:24;10.94;95.62
28175;SHT30;59417;44.788;10.334;2024-03-02T03:55:50;10.95;95.60
28175;SHT30;59417;44.788;10.334;2024-03-02T03:58:15;10.92;95.64
28175;SHT30;59417;44.788;10.334;2024-03-02T04:00:42;10.95;95.62
28175;SHT30;59417;44.788;10.334;2024-03-02T04:03:08;10.96;95.63
28175;SHT30;59417;44.788;10.334;2024-03-02T04:05:38;10.94;95.69
28175;SHT30;59417;44.788;10.334;2024-03-02T04:08:05;10.88;95.74
28175;SHT30;59417;44.788;10.334;2024-03-02T04:10:31;10.88;95.74
28175;SHT30;59417;44.788;10.334;2024-03-02T04:12:56;10.92;95.70
28175;SHT30;59417;44.788;10.334;2024-03-02T04:15:22;10.92;95.75
28175;SHT30;59417;44.788;10.334;2024-03-02T04:17:51;10.94;95.67
28175;SHT30;59417;44.788;10.334;2024-03-02T04:20:17;10.96;95.65
28175;SHT30;59417;44.788;10.334;2024-03-02T04:22:43;10.92;95.71
28175;SHT30;59417;44.788;10.334;2024-03-02T04:25:08;10.92;95.76
28175;SHT30;59417;44.788;10.334;2024-03-02T04:27:37;10.92;95.79
28175;SHT30;59417;44.788;10.334;2024-03-02T04:30:06;10.89;95.76
28175;SHT30;59417;44.788;10.334;2024-03-02T04:32:42;10.89;95.74
28175;SHT30;59417;44.788;10.334;2024-03-02T04:35:11;10.91;95.75
28175;SHT30;59417;44.788;10.334;2024-03-02T04:37:38;10.92;95.71
28175;SHT30;59417;44.788;10.334;2024-03-02T04:40:04;10.89;95.80
28175;SHT30;59417;44.788;10.334;2024-03-02T04:42:36;10.94;95.70
28175;SHT30;59417;44.788;10.334;2024-03-02T04:45:02;10.92;95.81
28175;SHT30;59417;44.788;10.334;2024-03-02T04:47:31;10.91;95.87
28175;SHT30;59417;44.788;10.334;2024-03-02T04:49:57;10.88;95.87
28175;SHT30;59417;44.788;10.334;2024-03-02T04:52:23;10.89;95.89
28175;SHT30;59417;44.788;10.334;2024-03-02T04:54:48;10.88;95.92
28175;SHT30;59417;44.788;10.334;2024-03-02T04:57:32;10.89;95.94
28175;SHT30;59417;44.788;10.334;2024-03-02T04:59:58;10.94;95.83
28175;SHT30;59417;44.788;10.334;2024-03-02T05:02:23;10.94;95.90
28175;SHT30;59417;44.788;10.334;2024-03-02T05:04:49;10.92;95.93
28175;SHT30;59417;44.788;10.334;2024-03-02T05:07:26;10.89;95.92
28175;SHT30;59417;44.788;10.334;2024-03-02T05:09:55;10.88;95.88
28175;SHT30;59417;44.788;10.334;2024-03-02T05:12:21;10.91;95.93
28175;SHT30;59417;44.788;10.334;2024-03-02T05:14:48;10.88;96.00
28175;SHT30;59417;44.788;10.334;2024-03-02T05:17:13;10.88;96.05
28175;SHT30;59417;44.788;10.334;2024-03-02T05:19:39;10.85;96.09
28175;SHT30;59417;44.788;10.334;2024-03-02T05:22:04;10.91;96.00
28175;SHT30;59417;44.788;10.334;2024-03-02T05:24:31;10.88;96.01
28175;SHT30;59417;44.788;10.334;2024-03-02T05:26:56;10.87;96.07
28175;SHT30;59417;44.788;10.334;2024-03-02T05:29:31;10.88;96.04
28175;SHT30;59417;44.788;10.334;2024-03-02T05:31:57;10.92;95.97
28175;SHT30;59417;44.788;10.334;2024-03-02T05:34:24;10.91;96.02
28175;SHT30;59417;44.788;10.334;2024-03-02T05:36:50;10.89;96.06
28175;SHT30;59417;44.788;10.334;2024-03-02T05:39:16;10.89;96.06
28175;SHT30;59417;44.788;10.334;2024-03-02T05:41:41;10.92;95.99
28175;SHT30;59417;44.788;10.334;2024-03-02T05:44:07;10.88;95.95
28175;SHT30;59417;44.788;10.334;2024-03-02T05:46:34;10.92;95.93
28175;SHT30;59417;44.788;10.334;2024-03-02T05:49:06;10.91;95.94
28175;SHT30;59417;44.788;10.334;2024-03-02T05:51:33;10.85;95.98
28175;SHT30;59417;44.788;10.334;2024-03-02T05:53:59;10.87;95.97
28175;SHT30;59417;44.788;10.334;2024-03-02T05:56:24;10.91;95.91
28175;SHT30;59417;44.788;10.334;2024-03-02T05:58:50;10.87;95.93
28175;SHT30;59417;44.788;10.334;2024-03-02T06:01:33;10.89;95.89
28175;SHT30;59417;44.788;10.334;2024-03-02T06:03:59;10.89;95.82
28175;SHT30;59417;44.788;10.334;2024-03-02T06:06:25;10.87;95.94
28175;SHT30;59417;44.788;10.334;2024-03-02T06:08:52;10.85;96.01
28175;SHT30;59417;44.788;10.334;2024-03-02T06:11:19;10.84;96.01
28175;SHT30;59417;44.788;10.334;2024-03-02T06:13:45;10.85;95.93
28175;SHT30;59417;44.788;10.334;2024-03-02T06:16:11;10.89;95.92
28175;SHT30;59417;44.788;10.334;2024-03-02T06:18:36;10.88;95.96
28175;SHT30;59417;44.788;10.334;2024-03-02T06:21:02;10.85;96.07
28175;SHT30;59417;44.788;10.334;2024-03-02T06:23:28;10.87;95.94
28175;SHT30;59417;44.788;10.334;2024-03-02T06:25:54;10.87;95.99
28175;SHT30;59417;44.788;10.334;2024-03-02T06:28:20;10.84;96.01
28175;SHT30;59417;44.788;10.334;2024-03-02T06:30:46;10.87;95.98
28175;SHT30;59417;44.788;10.334;2024-03-02T06:33:14;10.85;96.02
28175;SHT30;59417;44.788;10.334;2024-03-02T06:35:44;10.84;96.03
28175;SHT30;59417;44.788;10.334;2024-03-02T06:38:09;10.85;95.95
28175;SHT30;59417;44.788;10.334;2024-03-02T06:40:35;10.84;96.01
28175;SHT30;59417;44.788;10.334;2024-03-02T06:43:03;10.84;96.01
28175;SHT30;59417;44.788;10.334;2024-03-02T06:45:28;10.88;96.06
28175;SHT30;59417;44.788;10.334;2024-03-02T06:47:56;10.91;95.99
28175;SHT30;59417;44.788;10.334;2024-03-02T06:50:22;10.92;95.97
28175;SHT30;59417;44.788;10.334;2024-03-02T06:52:48;10.91;95.98
28175;SHT30;59417;44.788;10.334;2024-03-02T06:55:17;10.91;96.06
28175;SHT30;59417;44.788;10.334;2024-03-02T06:57:48;10.89;96.04
28175;SHT30;59417;44.788;10.334;2024-03-02T07:00:14;10.95;95.96
28175;SHT30;59417;44.788;10.334;2024-03-02T07:02:39;10.92;95.98
28175;SHT30;59417;44.788;10.334;2024-03-02T07:05:08;10.92;96.00
28175;SHT30;59417;44.788;10.334;2024-03-02T07:07:34;10.94;95.99
28175;SHT30;59417;44.788;10.334;2024-03-02T07:10:05;10.95;96.03
28175;SHT30;59417;44.788;10.334;2024-03-02T07:12:33;10.95;95.97
28175;SHT30;59417;44.788;10.334;2024-03-02T07:15:00;10.98;96.02
28175;SHT30;59417;44.788;10.334;2024-03-02T07:17:30;10.98;96.09
28175;SHT30;59417;44.788;10.334;2024-03-02T07:19:58;10.99;96.00
28175;SHT30;59417;44.788;10.334;2024-03-02T07:22:27;11.02;95.97
28175;SHT30;59417;44.788;10.334;2024-03-02T07:24:57;11.01;95.98
28175;SHT30;59417;44.788;10.334;2024-03-02T07:27:24;11.01;96.00
28175;SHT30;59417;44.788;10.334;2024-03-02T07:29:50;10.99;96.01
28175;SHT30;59417;44.788;10.334;2024-03-02T07:32:16;11.01;96.09
28175;SHT30;59417;44.788;10.334;2024-03-02T07:34:42;11.04;96.06
28175;SHT30;59417;44.788;10.334;2024-03-02T07:37:08;11.05;96.02
28175;SHT30;59417;44.788;10.334;2024-03-02T07:39:33;11.05;95.99
28175;SHT30;59417;44.788;10.334;2024-03-02T07:41:59;11.04;96.05
28175;SHT30;59417;44.788;10.334;2024-03-02T07:44:25;11.06;95.97
28175;SHT30;59417;44.788;10.334;2024-03-02T07:46:51;11.08;96.01
28175;SHT30;59417;44.788;10.334;2024-03-02T07:49:20;11.08;96.01
28175;SHT30;59417;44.788;10.334;2024-03-02T07:51:47;11.12;95.88
28175;SHT30;59417;44.788;10.334;2024-03-02T07:54:12;11.11;95.91
28175;SHT30;59417;44.788;10.334;2024-03-02T07:56:38;11.13;95.95
28175;SHT30;59417;44.788;10.334;2024-03-02T07:59:04;11.18;95.98
28175;SHT30;59417;44.788;10.334;2024-03-02T08:01:31;11.19;95.88
28175;SHT30;59417;44.788;10.334;2024-03-02T08:03:58;11.20;95.80
28175;SHT30;59417;44.788;10.334;2024-03-02T08:06:25;11.22;95.79
28175;SHT30;59417;44.788;10.334;2024-03-02T08:08:59;11.20;95.87
28175;SHT30;59417;44.788;10.334;2024-03-02T08:11:27;11.23;95.80
28175;SHT30;59417;44.788;10.334;2024-03-02T08:13:56;11.29;95.77
28175;SHT30;59417;44.788;10.334;2024-03-02T08:16:23;11.27;95.70
28175;SHT30;59417;44.788;10.334;2024-03-02T08:18:49;11.33;95.61
28175;SHT30;59417;44.788;10.334;2024-03-02T08:21:15;11.33;95.69
28175;SHT30;59417;44.788;10.334;2024-03-02T08:23:42;11.33;95.55
28175;SHT30;59417;44.788;10.334;2024-03-02T08:26:11;11.30;95.53
28175;SHT30;59417;44.788;10.334;2024-03-02T08:28:37;11.33;95.58
28175;SHT30;59417;44.788;10.334;2024-03-02T08:31:03;11.32;95.52
28175;SHT30;59417;44.788;10.334;2024-03-02T08:33:29;11.32;95.39
28175;SHT30;59417;44.788;10.334;2024-03-02T08:35:56;11.30;95.37
28175;SHT30;59417;44.788;10.334;2024-03-02T08:38:22;11.32;95.41
28175;SHT30;59417;44.788;10.334;2024-03-02T08:40:50;11.30;95.47
28175;SHT30;59417;44.788;10.334;2024-03-02T08:43:15;11.29;95.52
28175;SHT30;59417;44.788;10.334;2024-03-02T08:45:53;11.33;95.50
28175;SHT30;59417;44.788;10.334;2024-03-02T08:48:18;11.40;95.53
28175;SHT30;59417;44.788;10.334;2024-03-02T08:50:46;11.39;95.56
28175;SHT30;59417;44.788;10.334;2024-03-02T08:53:12;11.42;95.54
28175;SHT30;59417;44.788;10.334;2024-03-02T08:55:37;11.45;95.44
28175;SHT30;59417;44.788;10.334;2024-03-02T08:58:03;11.42;95.37
28175;SHT30;59417;44.788;10.334;2024-03-02T09:00:28;11.40;95.50
28175;SHT30;59417;44.788;10.334;2024-03-02T09:02:54;11.47;95.53
28175;SHT30;59417;44.788;10.334;2024-03-02T09:05:19;11.49;95.32
28175;SHT30;59417;44.788;10.334;2024-03-02T09:07:45;11.49;95.29
28175;SHT30;59417;44.788;10.334;2024-03-02T09:10:11;11.55;95.21
28175;SHT30;59417;44.788;10.334;2024-03-02T09:12:37;11.57;95.17
28175;SHT30;59417;44.788;10.334;2024-03-02T09:15:03;11.63;95.10
28175;SHT30;59417;44.788;10.334;2024-03-02T09:17:29;11.60;95.10
28175;SHT30;59417;44.788;10.334;2024-03-02T09:19:55;11.64;94.90
28175;SHT30;59417;44.788;10.334;2024-03-02T09:22:21;11.67;94.96
28175;SHT30;59417;44.788;10.334;2024-03-02T09:24:47;11.71;94.71
28175;SHT30;59417;44.788;10.334;2024-03-02T09:27:13;11.70;94.61
28175;SHT30;59417;44.788;10.334;2024-03-02T09:29:39;11.69;94.34
28175;SHT30;59417;44.788;10.334;2024-03-02T09:32:05;11.70;94.21
28175;SHT30;59417;44.788;10.334;2024-03-02T09:34:31;11.71;94.22
28175;SHT30;59417;44.788;10.334;2024-03-02T09:36:57;11.73;94.19
28175;SHT30;59417;44.788;10.334;2024-03-02T09:39:25;11.73;94.23
28175;SHT30;59417;44.788;10.334;2024-03-02T09:41:51;11.78;94.33
28175;SHT30;59417;44.788;10.334;2024-03-02T09:44:17;11.80;94.36
28175;SHT30;59417;44.788;10.334;2024-03-02T09:46:48;11.81;94.37
28175;SHT30;59417;44.788;10.334;2024-03-02T09:49:14;11.84;94.35
28175;SHT30;59417;44.788;10.334;2024-03-02T09:51:40;11.84;94.56
28175;SHT30;59417;44.788;10.334;2024-03-02T09:54:09;11.84;94.48
28175;SHT30;59417;44.788;10.334;2024-03-02T09:56:34;11.88;94.52
28175;SHT30;59417;44.788;10.334;2024-03-02T09:59:01;11.90;94.55
28175;SHT30;59417;44.788;10.334;2024-03-02T10:01:26;11.91;94.34
28175;SHT30;59417;44.788;10.334;2024-03-02T10:03:53;11.93;94.24
28175;SHT30;59417;44.788;10.334;2024-03-02T10:06:23;11.87;94.18
28175;SHT30;59417;44.788;10.334;2024-03-02T10:08:49;11.90;94.14
28175;SHT30;59417;44.788;10.334;2024-03-02T10:11:32;11.97;94.05
28175;SHT30;59417;44.788;10.334;2024-03-02T10:16:35;12.08;94.15
28175;SHT30;59417;44.788;10.334;2024-03-02T10:19:23;12.14;94.08
28175;SHT30;59417;44.788;10.334;2024-03-02T10:21:53;12.16;93.50
28175;SHT30;59417;44.788;10.334;2024-03-02T10:24:19;12.18;93.23
28175;SHT30;59417;44.788;10.334;2024-03-02T10:27:16;12.21;92.96
28175;SHT30;59417;44.788;10.334;2024-03-02T10:29:51;12.17;92.67
28175;SHT30;59417;44.788;10.334;2024-03-02T10:32:17;12.18;92.49
28175;SHT30;59417;44.788;10.334;2024-03-02T10:34:45;12.22;92.55
28175;SHT30;59417;44.788;10.334;2024-03-02T10:37:11;12.27;92.54
28175;SHT30;59417;44.788;10.334;2024-03-02T10:39:37;12.31;92.24
28175;SHT30;59417;44.788;10.334;2024-03-02T10:42:06;12.27;91.77
28175;SHT30;59417;44.788;10.334;2024-03-02T10:44:33;12.35;91.59
28175;SHT30;59417;44.788;10.334;2024-03-02T10:47:03;12.31;91.52
28175;SHT30;59417;44.788;10.334;2024-03-02T10:49:33;12.29;91.68
28175;SHT30;59417;44.788;10.334;2024-03-02T10:51:59;12.42;91.81
28175;SHT30;59417;44.788;10.334;2024-03-02T10:54:25;12.59;91.85
28175;SHT30;59417;44.788;10.334;2024-03-02T10:57:01;12.77;91.65
28175;SHT30;59417;44.788;10.334;2024-03-02T10:59:33;13.03;91.40
28175;SHT30;59417;44.788;10.334;2024-03-02T11:02:00;13.11;90.80
28175;SHT30;59417;44.788;10.334;2024-03-02T11:04:27;13.10;90.27
28175;SHT30;59417;44.788;10.334;2024-03-02T11:06:59;13.03;90.01
28175;SHT30;59417;44.788;10.334;2024-03-02T11:09:28;12.95;89.81
28175;SHT30;59417;44.788;10.334;2024-03-02T11:15:06;12.92;90.37
28175;SHT30;59417;44.788;10.334;2024-03-02T11:17:35;12.89;90.36
28175;SHT30;59417;44.788;10.334;2024-03-02T11:20:03;12.90;90.51
28175;SHT30;59417;44.788;10.334;2024-03-02T11:22:30;12.99;90.37
28175;SHT30;59417;44.788;10.334;2024-03-02T11:24:55;12.99;90.16
28175;SHT30;59417;44.788;10.334;2024-03-02T11:33:05;13.00;90.89
28175;SHT30;59417;44.788;10.334;2024-03-02T11:35:37;13.02;91.16
28175;SHT30;59417;44.788;10.334;2024-03-02T11:38:04;13.02;91.09
28175;SHT30;59417;44.788;10.334;2024-03-02T11:40:31;13.13;90.40
28175;SHT30;59417;44.788;10.334;2024-03-02T11:42:59;13.10;89.89
28175;SHT30;59417;44.788;10.334;2024-03-02T11:45:28;13.17;90.03
28175;SHT30;59417;44.788;10.334;2024-03-02T11:47:57;13.17;90.01
28175;SHT30;59417;44.788;10.334;2024-03-02T11:50:41;13.16;90.13
28175;SHT30;59417;44.788;10.334;2024-03-02T11:53:08;13.16;89.78
28175;SHT30;59417;44.788;10.334;2024-03-02T11:55:35;13.17;89.87
28175;SHT30;59417;44.788;10.334;2024-03-02T11:58:13;13.19;89.90
28175;SHT30;59417;44.788;10.334;2024-03-02T12:00:39;13.23;89.69
28175;SHT30;59417;44.788;10.334;2024-03-02T12:03:13;13.19;89.84
28175;SHT30;59417;44.788;10.334;2024-03-02T12:05:39;13.16;90.07
28175;SHT30;59417;44.788;10.334;2024-03-02T12:08:08;13.06;90.09
28175;SHT30;59417;44.788;10.334;2024-03-02T12:10:35;13.03;90.13
28175;SHT30;59417;44.788;10.334;2024-03-02T12:13:03;13.06;89.70
28175;SHT30;59417;44.788;10.334;2024-03-02T12:15:34;13.04;89.78
28175;SHT30;59417;44.788;10.334;2024-03-02T12:18:01;13.07;89.94
28175;SHT30;59417;44.788;10.334;2024-03-02T12:20:29;13.13;90.01
28175;SHT30;59417;44.788;10.334;2024-03-02T12:22:57;13.21;89.88
28175;SHT30;59417;44.788;10.334;2024-03-02T12:25:26;13.19;89.52
28175;SHT30;59417;44.788;10.334;2024-03-02T12:27:55;13.24;89.30
28175;SHT30;59417;44.788;10.334;2024-03-02T12:30:22;13.21;89.15
28175;SHT30;59417;44.788;10.334;2024-03-02T12:32:48;13.21;89.37
28175;SHT30;59417;44.788;10.334;2024-03-02T12:35:17;13.20;89.34
28175;SHT30;59417;44.788;10.334;2024-03-02T12:37:48;13.09;89.11
28175;SHT30;59417;44.788;10.334;2024-03-02T12:40:15;13.03;89.12
28175;SHT30;59417;44.788;10.334;2024-03-02T12:42:46;12.95;89.29
28175;SHT30;59417;44.788;10.334;2024-03-02T12:45:15;12.89;89.36
28175;SHT30;59417;44.788;10.334;2024-03-02T12:47:42;12.83;89.46
28175;SHT30;59417;44.788;10.334;2024-03-02T12:50:09;12.86;89.86
28175;SHT30;59417;44.788;10.334;2024-03-02T12:52:35;12.87;90.30
28175;SHT30;59417;44.788;10.334;2024-03-02T12:55:05;12.96;90.80
28175;SHT30;59417;44.788;10.334;2024-03-02T12:57:31;12.86;91.20
28175;SHT30;59417;44.788;10.334;2024-03-02T13:00:01;12.89;91.50
28175;SHT30;59417;44.788;10.334;2024-03-02T13:02:45;12.95;91.60
28175;SHT30;59417;44.788;10.334;2024-03-02T13:05:12;13.07;91.63
28175;SHT30;59417;44.788;10.334;2024-03-02T13:07:38;13.13;91.72
28175;SHT30;59417;44.788;10.334;2024-03-02T13:10:05;13.20;91.59
28175;SHT30;59417;44.788;10.334;2024-03-02T13:12:33;13.26;91.38
28175;SHT30;59417;44.788;10.334;2024-03-02T13:14:59;13.44;91.42
28175;SHT30;59417;44.788;10.334;2024-03-02T13:17:25;13.50;91.09
28175;SHT30;59417;44.788;10.334;2024-03-02T13:22:19;14.05;90.39
28175;SHT30;59417;44.788;10.334;2024-03-02T13:24:44;14.10;88.83
28175;SHT30;59417;44.788;10.334;2024-03-02T13:27:10;14.53;88.59
28175;SHT30;59417;44.788;10.334;2024-03-02T13:29:36;14.84;86.20
28175;SHT30;59417;44.788;10.334;2024-03-02T13:32:02;14.91;86.06
28175;SHT30;59417;44.788;10.334;2024-03-02T13:34:28;15.02;87.04
28175;SHT30;59417;44.788;10.334;2024-03-02T13:36:53;15.31;86.06
28175;SHT30;59417;44.788;10.334;2024-03-02T13:39:19;15.42;85.27
28175;SHT30;59417;44.788;10.334;2024-03-02T13:41:44;15.41;84.33
28175;SHT30;59417;44.788;10.334;2024-03-02T13:44:21;15.62;84.12
28175;SHT30;59417;44.788;10.334;2024-03-02T13:46:47;15.72;83.41
28175;SHT30;59417;44.788;10.334;2024-03-02T13:49:14;15.66;82.51
28175;SHT30;59417;44.788;10.334;2024-03-02T13:51:42;15.36;82.65
28175;SHT30;59417;44.788;10.334;2024-03-02T13:54:08;15.12;83.13
28175;SHT30;59417;44.788;10.334;2024-03-02T13:56:36;14.90;83.48
28175;SHT30;59417;44.788;10.334;2024-03-02T13:59:04;14.73;83.98
28175;SHT30;59417;44.788;10.334;2024-03-02T14:01:31;14.57;84.64
28175;SHT30;59417;44.788;10.334;2024-03-02T14:03:58;14.40;85.76
28175;SHT30;59417;44.788;10.334;2024-03-02T14:06:23;14.25;86.04
28175;SHT30;59417;44.788;10.334;2024-03-02T14:08:54;14.17;86.48
28175;SHT30;59417;44.788;10.334;2024-03-02T14:11:20;14.15;87.03
28175;SHT30;59417;44.788;10.334;2024-03-02T14:13:46;14.17;86.99
28175;SHT30;59417;44.788;10.334;2024-03-02T14:16:19;14.20;87.13
28175;SHT30;59417;44.788;10.334;2024-03-02T14:18:45;14.44;86.41
28175;SHT30;59417;44.788;10.334;2024-03-02T14:21:10;14.80;85.48
28175;SHT30;59417;44.788;10.334;2024-03-02T14:23:36;15.01;84.42
28175;SHT30;59417;44.788;10.334;2024-03-02T14:26:02;15.05;83.94
28175;SHT30;59417;44.788;10.334;2024-03-02T14:28:28;15.04;83.97
28175;SHT30;59417;44.788;10.334;2024-03-02T14:30:54;15.08;84.03
28175;SHT30;59417;44.788;10.334;2024-03-02T14:33:20;15.28;84.62
28175;SHT30;59417;44.788;10.334;2024-03-02T14:35:46;15.25;85.00
28175;SHT30;59417;44.788;10.334;2024-03-02T14:38:13;14.94;84.37
28175;SHT30;59417;44.788;10.334;2024-03-02T14:40:38;14.64;84.50
28175;SHT30;59417;44.788;10.334;2024-03-02T14:43:04;14.43;84.96
28175;SHT30;59417;44.788;10.334;2024-03-02T14:45:30;14.34;86.14
28175;SHT30;59417;44.788;10.334;2024-03-02T14:47:56;14.33;86.14
28175;SHT30;59417;44.788;10.334;2024-03-02T14:50:26;14.46;86.81
28175;SHT30;59417;44.788;10.334;2024-03-02T14:52:52;14.47;86.14
28175;SHT30;59417;44.788;10.334;2024-03-02T14:55:17;14.37;86.09
28175;SHT30;59417;44.788;10.334;2024-03-02T14:57:43;14.33;86.20
28175;SHT30;59417;44.788;10.334;2024-03-02T15:00:09;14.23;86.56
28175;SHT30;59417;44.788;10.334;2024-03-02T15:02:37;14.17;86.68
28175;SHT30;59417;44.788;10.334;2024-03-02T15:05:03;14.12;86.78
28175;SHT30;59417;44.788;10.334;2024-03-02T15:07:31;14.12;86.91
28175;SHT30;59417;44.788;10.334;2024-03-02T15:09:56;14.08;86.85
28175;SHT30;59417;44.788;10.334;2024-03-02T15:12:22;14.09;87.04
28175;SHT30;59417;44.788;10.334;2024-03-02T15:14:48;14.12;86.97
28175;SHT30;59417;44.788;10.334;2024-03-02T15:17:14;14.20;87.03
28175;SHT30;59417;44.788;10.334;2024-03-02T15:19:46;14.23;86.92
28175;SHT30;59417;44.788;10.334;2024-03-02T15:22:12;14.27;87.09
28175;SHT30;59417;44.788;10.334;2024-03-02T15:24:38;14.22;86.61
28175;SHT30;59417;44.788;10.334;2024-03-02T15:27:05;14.15;86.62
28175;SHT30;59417;44.788;10.334;2024-03-02T15:29:32;14.05;86.88
28175;SHT30;59417;44.788;10.334;2024-03-02T15:31:58;13.95;87.16
28175;SHT30;59417;44.788;10.334;2024-03-02T15:34:24;13.88;87.30
28175;SHT30;59417;44.788;10.334;2024-03-02T15:36:50;13.79;87.23